Time;durP1;ratioP1;P1;durP2;ratioP2;P2;SDS_P1;SDS_P2;PMS_P1;PMS_P2;Temp;Humidity;BMP_temperature;BMP_pressure;BME280_temperature;BME280_humidity;BME280_pressure;Samples;Min_cycle;Max_cycle;Signal;HPM_P1;HPM_P2
2021/05/18 04:12:46;;;;;;;0.80;0.80;;;11.50;99.90;;;;;;4957828;29;20241;-78
2021/05/18 04:18:14;;;;;;;0.77;0.77;;;11.50;99.90;;;;;;4917486;29;20198;-78
2021/05/18 04:20:50;;;;;;;0.80;0.80;;;11.50;99.90;;;;;;4948644;28;20280;-77
2021/05/18 04:23:27;;;;;;;0.70;0.70;;;11.50;99.90;;;;;;4956445;29;20205;-76
2021/05/18 04:43:12;;;;;;;0.80;0.80;;;11.60;99.90;;;;;;4958690;28;20236;-78
2021/05/18 04:51:22;;;;;;;0.63;0.63;;;11.60;99.90;;;;;;4956470;28;20240;-79
2021/05/18 04:54:10;;;;;;;0.80;0.80;;;11.60;99.90;;;;;;4956230;29;20229;-78
2021/05/18 04:59:27;;;;;;;0.70;0.70;;;11.60;99.90;;;;;;4958304;28;20221;-79
2021/05/18 05:02:08;;;;;;;0.70;0.70;;;11.60;99.90;;;;;;4957713;28;20225;-80
2021/05/18 05:07:17;;;;;;;0.70;0.70;;;11.70;99.90;;;;;;4933862;29;20256;-75
2021/05/18 05:09:47;;;;;;;0.80;0.80;;;11.70;99.90;;;;;;4956611;29;20721;-78
2021/05/18 05:12:50;;;;;;;0.73;0.73;;;11.80;99.90;;;;;;4954335;28;20648;-77
2021/05/18 05:15:18;;;;;;;0.70;0.70;;;11.80;99.90;;;;;;4957683;28;20201;-77
2021/05/18 05:17:46;;;;;;;0.70;0.70;;;11.90;99.90;;;;;;4957876;29;20240;-77
2021/05/18 05:20:13;;;;;;;0.70;0.70;;;11.90;99.90;;;;;;4957619;28;20292;-78
2021/05/18 05:22:44;;;;;;;0.70;0.70;;;11.90;99.90;;;;;;4958169;28;20189;-77
2021/05/18 05:25:12;;;;;;;0.70;0.70;;;11.90;99.90;;;;;;4956983;28;20217;-78
2021/05/18 05:27:39;;;;;;;0.70;0.70;;;11.90;99.90;;;;;;4957689;28;20201;-76
2021/05/18 05:30:08;;;;;;;0.80;0.80;;;12.00;99.90;;;;;;4957701;28;20201;-78
2021/05/18 05:32:36;;;;;;;0.73;0.73;;;12.00;99.90;;;;;;4957378;28;20260;-76
2021/05/18 05:35:06;;;;;;;0.70;0.70;;;12.00;99.90;;;;;;4957426;29;20205;-77
2021/05/18 05:37:36;;;;;;;0.70;0.70;;;12.20;99.90;;;;;;4957391;28;20205;-77
2021/05/18 05:40:05;;;;;;;0.70;0.70;;;12.20;99.90;;;;;;4957267;28;20222;-77
2021/05/18 05:42:33;;;;;;;0.70;0.70;;;12.20;99.90;;;;;;4957316;28;20284;-77
2021/05/18 05:45:00;;;;;;;0.60;0.60;;;12.50;99.90;;;;;;4956155;28;20209;-76
2021/05/18 05:47:28;;;;;;;0.60;0.60;;;12.40;99.90;;;;;;4956037;28;20205;-78
2021/05/18 05:49:55;;;;;;;0.70;0.70;;;12.60;99.90;;;;;;4956468;29;20284;-76
2021/05/18 05:52:23;;;;;;;0.70;0.70;;;12.80;99.90;;;;;;4955803;28;20225;-77
2021/05/18 05:54:51;;;;;;;0.60;0.60;;;12.90;99.90;;;;;;4956428;28;20263;-76
2021/05/18 05:57:19;;;;;;;0.60;0.60;;;12.90;99.90;;;;;;4956168;28;20205;-76
2021/05/18 05:59:48;;;;;;;0.50;0.50;;;13.00;99.90;;;;;;4955920;29;20284;-76
2021/05/18 06:02:15;;;;;;;0.70;0.70;;;13.10;99.90;;;;;;4955321;28;20230;-76
2021/05/18 06:04:43;;;;;;;0.70;0.70;;;13.10;99.90;;;;;;4955720;28;20202;-76
2021/05/18 06:07:10;;;;;;;0.60;0.60;;;13.10;99.90;;;;;;4956023;29;20253;-76
2021/05/18 06:09:39;;;;;;;0.60;0.60;;;13.00;99.90;;;;;;4956172;28;20201;-76
2021/05/18 06:12:20;;;;;;;0.70;0.70;;;13.00;99.90;;;;;;4955526;28;20237;-76
2021/05/18 06:14:56;;;;;;;0.68;0.68;;;13.00;99.90;;;;;;4955283;28;20205;-76
2021/05/18 06:17:56;;;;;;;0.60;0.60;;;12.80;99.90;;;;;;4955742;28;20256;-76
2021/05/18 06:34:30;;;;;;;0.60;0.60;;;12.70;99.90;;;;;;4948235;28;20198;-76
2021/05/18 06:37:19;;;;;;;0.60;0.60;;;12.80;99.90;;;;;;4979421;28;20197;-77
2021/05/18 06:42:58;;;;;;;0.60;0.60;;;12.90;99.90;;;;;;4966681;28;20554;-77
2021/05/18 06:48:12;;;;;;;0.60;0.60;;;12.90;99.90;;;;;;4954870;28;20210;-78
2021/05/18 06:50:39;;;;;;;0.60;0.60;;;12.90;99.90;;;;;;4954189;28;20221;-77
2021/05/18 06:53:06;;;;;;;0.70;0.70;;;12.90;99.90;;;;;;4954866;28;20201;-76
2021/05/18 06:55:35;;;;;;;0.60;0.60;;;12.90;99.90;;;;;;4954770;29;20233;-77
2021/05/18 06:58:06;;;;;;;0.70;0.70;;;12.80;99.90;;;;;;4954790;29;20234;-77
2021/05/18 07:00:36;;;;;;;0.50;0.50;;;12.90;99.90;;;;;;4954820;28;20236;-77
2021/05/18 07:03:06;;;;;;;0.77;0.77;;;12.90;99.90;;;;;;4955129;29;20260;-77
2021/05/18 07:05:37;;;;;;;0.70;0.70;;;12.90;99.90;;;;;;4955654;28;20201;-78
2021/05/18 07:08:30;;;;;;;0.70;0.70;;;13.00;99.90;;;;;;4956693;28;20205;-78
2021/05/18 07:10:57;;;;;;;0.70;0.70;;;13.10;99.90;;;;;;4955961;28;20237;-77
2021/05/18 07:13:26;;;;;;;0.70;0.70;;;13.10;99.90;;;;;;4956376;28;20685;-77
2021/05/18 07:15:53;;;;;;;0.70;0.70;;;13.10;99.90;;;;;;4955762;29;20608;-77
2021/05/18 07:18:21;;;;;;;0.70;0.70;;;12.90;99.90;;;;;;4956312;29;20205;-77
2021/05/18 07:20:48;;;;;;;0.70;0.70;;;12.70;99.90;;;;;;4955049;28;20229;-78
2021/05/18 07:23:18;;;;;;;0.70;0.70;;;12.70;99.90;;;;;;4956158;28;20205;-77
2021/05/18 07:25:46;;;;;;;0.70;0.70;;;12.70;99.90;;;;;;4955929;28;20925;-77
2021/05/18 07:28:16;;;;;;;0.70;0.70;;;12.80;99.90;;;;;;4955758;29;20273;-77
2021/05/18 07:30:44;;;;;;;0.70;0.70;;;12.70;99.90;;;;;;4955402;28;20570;-77
2021/05/18 07:33:11;;;;;;;0.80;0.80;;;12.70;99.90;;;;;;4955431;29;20209;-78
2021/05/18 07:35:39;;;;;;;0.70;0.70;;;12.70;99.90;;;;;;4955582;28;20213;-77
2021/05/18 07:38:06;;;;;;;0.80;0.80;;;12.90;99.90;;;;;;4954826;29;20205;-77
2021/05/18 07:40:34;;;;;;;0.60;0.60;;;13.00;99.90;;;;;;4955035;28;20264;-78
2021/05/18 07:43:04;;;;;;;0.70;0.70;;;13.20;99.90;;;;;;4955416;28;20205;-78
2021/05/18 07:45:32;;;;;;;0.60;0.60;;;13.30;99.90;;;;;;4955834;28;20641;-78
2021/05/18 07:48:10;;;;;;;0.65;0.65;;;13.40;99.90;;;;;;4955157;29;20693;-78
2021/05/18 07:50:44;;;;;;;0.70;0.70;;;13.50;99.90;;;;;;4956673;28;20644;-78
2021/05/18 08:07:02;;;;;;;0.70;0.70;;;13.10;99.90;;;;;;4959402;29;20271;-77
2021/05/18 08:09:31;;;;;;;0.70;0.70;;;13.00;99.90;;;;;;4959263;29;20209;-76
2021/05/18 08:11:59;;;;;;;0.70;0.70;;;13.10;99.90;;;;;;4958898;28;20237;-77
2021/05/18 08:14:27;;;;;;;0.70;0.70;;;13.10;99.90;;;;;;4958557;28;20551;-77
2021/05/18 08:17:12;;;;;;;0.70;0.70;;;13.20;99.90;;;;;;4958411;28;20272;-77
2021/05/18 10:14:26;;;;;;;0.50;0.50;;;15.90;99.90;;;;;;4956463;28;20561;-78
2021/05/18 10:35:49;;;;;;;0.60;0.60;;;16.50;99.90;;;;;;4973462;28;20212;-77
2021/05/18 10:38:21;;;;;;;0.50;0.50;;;16.60;99.90;;;;;;4973719;28;20279;-77
2021/05/18 10:40:50;;;;;;;0.50;0.50;;;16.60;99.90;;;;;;4973724;28;20248;-78
2021/05/18 10:43:21;;;;;;;0.40;0.40;;;17.00;95.00;;;;;;4973676;28;20640;-77
2021/05/18 10:46:08;;;;;;;0.40;0.40;;;;;;;;;;4973723;28;20243;-78
2021/05/18 10:49:08;;;;;;;0.60;0.60;;;17.40;93.60;;;;;;4973319;28;20604;-78
2021/05/18 10:51:40;;;;;;;0.50;0.50;;;;;;;;;;4973388;28;20267;-78
2021/05/18 10:54:13;;;;;;;0.50;0.50;;;17.60;91.70;;;;;;4973420;28;20225;-77
2021/05/18 10:57:23;;;;;;;0.40;0.40;;;17.50;90.60;;;;;;4973954;28;20205;-78
2021/05/18 10:59:54;;;;;;;0.50;0.50;;;17.30;89.60;;;;;;4964572;28;20669;-78
2021/05/18 11:02:25;;;;;;;0.40;0.40;;;17.00;90.80;;;;;;4973325;28;20763;-77
2021/05/18 11:04:56;;;;;;;0.50;0.50;;;17.00;91.30;;;;;;4973342;28;20232;-77
2021/05/18 11:07:32;;;;;;;0.40;0.40;;;16.70;90.20;;;;;;4973365;28;20583;-77
2021/05/18 11:10:01;;;;;;;0.60;0.60;;;16.70;91.10;;;;;;4973199;28;20204;-77
2021/05/18 11:12:29;;;;;;;0.50;0.50;;;16.80;91.90;;;;;;4973363;28;20201;-78
2021/05/18 11:15:09;;;;;;;0.40;0.40;;;17.00;90.80;;;;;;4973012;28;20229;-78
2021/05/18 11:17:38;;;;;;;0.40;0.40;;;17.20;88.30;;;;;;4973430;28;20212;-78
2021/05/18 11:20:23;;;;;;;0.40;0.40;;;17.40;87.60;;;;;;4973117;28;20200;-78
2021/05/18 11:23:20;;;;;;;0.40;0.40;;;17.30;97.50;;;;;;4972875;28;20204;-78
2021/05/18 11:25:51;;;;;;;0.50;0.50;;;17.60;88.90;;;;;;4973351;28;20200;-77
2021/05/18 11:28:24;;;;;;;0.40;0.40;;;17.80;88.10;;;;;;4973240;28;20219;-77
2021/05/18 11:30:53;;;;;;;0.50;0.50;;;18.00;88.40;;;;;;4973187;28;20286;-77
2021/05/18 11:33:27;;;;;;;0.40;0.40;;;17.90;87.10;;;;;;4972904;28;20645;-78
2021/05/18 11:36:03;;;;;;;0.50;0.50;;;17.80;88.90;;;;;;4973377;28;20213;-78
2021/05/18 11:38:34;;;;;;;0.40;0.40;;;17.60;90.00;;;;;;4977439;28;20247;-78
2021/05/18 11:41:02;;;;;;;0.50;0.50;;;17.60;90.90;;;;;;4977824;28;20224;-78
2021/05/18 11:43:34;;;;;;;0.40;0.40;;;17.50;90.60;;;;;;4977505;28;20228;-77
2021/05/18 11:46:05;;;;;;;0.40;0.40;;;17.60;91.90;;;;;;4977871;28;20204;-77
2021/05/18 11:48:34;;;;;;;0.40;0.40;;;17.70;91.30;;;;;;4977303;28;20232;-77
2021/05/18 11:51:05;;;;;;;0.50;0.50;;;17.80;90.50;;;;;;4976697;28;20204;-77
2021/05/18 11:53:37;;;;;;;0.50;0.50;;;17.70;90.60;;;;;;4976816;28;20776;-77
2021/05/18 11:56:17;;;;;;;0.50;0.50;;;17.40;90.30;;;;;;4976687;28;20204;-77
2021/05/18 11:58:49;;;;;;;0.40;0.40;;;17.20;90.50;;;;;;4977671;28;20235;-77
2021/05/18 12:01:16;;;;;;;0.60;0.60;;;17.30;90.20;;;;;;4975254;28;20225;-76
2021/05/18 12:03:44;;;;;;;0.40;0.40;;;17.40;89.90;;;;;;4976404;28;20284;-77
2021/05/18 12:06:15;;;;;;;0.50;0.50;;;17.60;90.10;;;;;;4976374;28;20227;-77
2021/05/18 12:08:43;;;;;;;0.50;0.50;;;17.80;89.60;;;;;;4976555;28;20210;-77
2021/05/18 12:11:17;;;;;;;0.50;0.50;;;17.90;90.10;;;;;;4976204;28;20201;-77
2021/05/18 12:13:46;;;;;;;0.50;0.50;;;17.50;90.90;;;;;;4976363;28;20229;-77
2021/05/18 12:16:15;;;;;;;0.50;0.50;;;17.30;91.30;;;;;;4976448;28;20696;-77
2021/05/18 12:18:43;;;;;;;0.50;0.50;;;17.20;92.40;;;;;;4976433;28;20211;-77
2021/05/18 12:21:16;;;;;;;0.60;0.60;;;16.90;92.60;;;;;;4976346;28;20217;-77
2021/05/18 12:24:01;;;;;;;0.60;0.60;;;16.90;93.10;;;;;;4975868;28;20717;-77
2021/05/18 12:26:29;;;;;;;0.55;0.55;;;17.00;91.50;;;;;;4976237;28;20208;-76
2021/05/18 12:28:58;;;;;;;0.45;0.45;;;16.90;91.70;;;;;;4975979;28;20249;-77
2021/05/18 12:31:33;;;;;;;0.50;0.50;;;16.90;91.90;;;;;;4975836;28;20291;-76
2021/05/18 12:34:01;;;;;;;0.50;0.50;;;16.90;91.40;;;;;;4975813;28;20229;-76
2021/05/18 12:36:49;;;;;;;0.50;0.50;;;16.80;91.00;;;;;;4978433;28;20631;-78
2021/05/18 12:39:17;;;;;;;0.40;0.40;;;17.00;91.20;;;;;;4979308;28;20293;-77
2021/05/18 12:41:54;;;;;;;0.60;0.60;;;17.30;92.60;;;;;;4975926;28;20231;-76
2021/05/18 12:44:23;;;;;;;0.50;0.50;;;16.90;90.40;;;;;;4975562;28;20220;-76
2021/05/18 12:47:08;;;;;;;0.50;0.50;;;16.70;91.20;;;;;;4975946;28;20259;-77
2021/05/18 12:49:37;;;;;;;0.50;0.50;;;16.80;90.80;;;;;;4974877;28;20715;-76
2021/05/18 12:52:11;;;;;;;0.50;0.50;;;16.60;91.20;;;;;;4975362;28;20232;-77
2021/05/18 12:54:42;;;;;;;0.60;0.60;;;16.30;92.30;;;;;;4975730;28;20223;-77
2021/05/18 12:57:13;;;;;;;0.60;0.60;;;16.00;93.20;;;;;;4962571;28;20577;-75
2021/05/18 12:59:58;;;;;;;0.60;0.60;;;16.10;95.00;;;;;;4958884;28;20201;-74
2021/05/18 13:02:35;;;;;;;0.60;0.60;;;16.10;95.60;;;;;;4956128;29;20229;-75
2021/05/18 13:05:06;;;;;;;0.60;0.60;;;15.90;95.30;;;;;;4961648;28;20217;-75
2021/05/18 13:08:13;;;;;;;0.60;0.60;;;15.80;95.30;;;;;;4975607;28;20211;-74
2021/05/18 13:11:14;;;;;;;0.60;0.60;;;16.00;96.20;;;;;;4957199;28;20225;-74
2021/05/18 13:13:47;;;;;;;0.60;0.60;;;16.10;95.20;;;;;;4966848;28;20226;-74
2021/05/18 13:16:18;;;;;;;0.60;0.60;;;16.40;95.00;;;;;;4969177;28;20201;-74
2021/05/18 13:18:54;;;;;;;0.52;0.52;;;16.70;93.70;;;;;;4965990;28;20204;-74
2021/05/18 13:21:24;;;;;;;0.50;0.50;;;17.10;93.50;;;;;;4965023;28;20221;-74
2021/05/18 13:24:21;;;;;;;0.50;0.50;;;17.70;92.80;;;;;;4963412;28;20593;-74
2021/05/18 13:26:49;;;;;;;0.40;0.40;;;18.30;91.90;;;;;;4966255;28;20201;-75
2021/05/18 13:29:19;;;;;;;0.40;0.40;;;;;;;;;;4964556;28;20197;-75
2021/05/18 13:31:48;;;;;;;0.40;0.40;;;18.90;95.80;;;;;;4964200;28;20239;-75
2021/05/18 13:34:27;;;;;;;0.40;0.40;;;19.00;96.10;;;;;;4965427;28;20224;-74
2021/05/18 13:36:58;;;;;;;0.40;0.40;;;18.90;95.10;;;;;;4964664;28;20198;-75
2021/05/18 13:39:28;;;;;;;0.40;0.40;;;18.90;94.50;;;;;;4957764;28;20255;-78
2021/05/18 13:41:56;;;;;;;0.40;0.40;;;18.80;95.10;;;;;;4958340;28;20843;-78
2021/05/18 13:44:24;;;;;;;0.40;0.40;;;18.90;99.90;;;;;;4954737;29;20224;-78
2021/05/18 13:46:52;;;;;;;0.40;0.40;;;18.90;92.60;;;;;;4954226;29;20265;-78
2021/05/18 13:49:19;;;;;;;0.45;0.45;;;18.80;92.70;;;;;;4954071;29;20201;-78
2021/05/18 13:51:46;;;;;;;0.50;0.50;;;19.00;92.50;;;;;;4953553;29;20654;-78
2021/05/18 13:54:31;;;;;;;0.40;0.40;;;19.20;92.40;;;;;;4953253;29;20225;-78
2021/05/18 13:57:00;;;;;;;0.40;0.40;;;19.50;92.40;;;;;;4953869;29;20738;-78
2021/05/18 13:59:28;;;;;;;0.40;0.40;;;19.10;91.30;;;;;;4955369;28;20217;-77
2021/05/18 14:01:56;;;;;;;0.40;0.40;;;19.30;91.30;;;;;;4960195;28;20223;-77
2021/05/18 14:04:23;;;;;;;0.32;0.32;;;19.50;90.90;;;;;;4955031;29;20222;-77
2021/05/18 14:07:13;;;;;;;0.38;0.38;;;19.40;88.40;;;;;;4959993;28;20256;-77
2021/05/18 14:09:40;;;;;;;0.50;0.50;;;19.70;88.60;;;;;;4964366;28;20239;-76
2021/05/18 14:12:09;;;;;;;0.40;0.40;;;19.20;84.70;;;;;;4955157;28;20639;-77
2021/05/18 14:14:36;;;;;;;0.40;0.40;;;19.20;85.70;;;;;;4955071;29;20450;-77
2021/05/18 14:17:04;;;;;;;0.40;0.40;;;19.10;86.60;;;;;;4954920;28;20205;-75
2021/05/18 14:19:32;;;;;;;0.50;0.50;;;19.10;81.50;;;;;;4966299;28;20208;-77
2021/05/18 14:22:01;;;;;;;0.40;0.40;;;19.00;88.50;;;;;;4975790;28;20720;-78
2021/05/18 14:24:38;;;;;;;0.40;0.40;;;19.10;90.90;;;;;;4969419;28;20252;-78
2021/05/18 14:27:08;;;;;;;0.30;0.30;;;19.30;91.00;;;;;;4966306;28;20201;-78
2021/05/18 14:29:36;;;;;;;0.40;0.40;;;19.50;91.80;;;;;;4963439;28;20216;-78
2021/05/18 14:32:04;;;;;;;0.40;0.40;;;;;;;;;;4966485;28;20567;-78
2021/05/18 14:34:32;;;;;;;0.30;0.30;;;20.00;80.40;;;;;;4963677;28;20755;-77
2021/05/18 14:36:59;;;;;;;0.40;0.40;;;19.90;80.10;;;;;;4962909;28;20216;-77
2021/05/18 14:39:36;;;;;;;0.30;0.30;;;19.80;79.10;;;;;;4962638;28;20475;-77
2021/05/18 14:44:50;;;;;;;0.30;0.30;;;19.60;78.70;;;;;;4966271;28;20224;-77
2021/05/18 14:47:21;;;;;;;0.35;0.35;;;19.40;83.90;;;;;;4964030;28;20204;-77
2021/05/18 14:55:21;;;;;;;0.40;0.40;;;19.40;84.40;;;;;;4972544;28;20212;-78
2021/05/18 14:57:49;;;;;;;0.30;0.30;;;19.60;84.70;;;;;;4962756;28;20252;-77
2021/05/18 15:00:19;;;;;;;0.40;0.40;;;19.70;80.90;;;;;;4963133;28;20200;-76
2021/05/18 15:02:47;;;;;;;0.30;0.30;;;19.50;81.00;;;;;;4953979;29;20229;-78
2021/05/18 15:05:16;;;;;;;0.40;0.40;;;19.10;82.10;;;;;;4954003;29;20686;-77
2021/05/18 15:07:44;;;;;;;0.40;0.40;;;19.00;83.80;;;;;;4964986;28;20303;-76
2021/05/18 15:10:12;;;;;;;0.38;0.38;;;18.90;82.80;;;;;;4961789;28;20202;-77
2021/05/18 15:12:39;;;;;;;0.40;0.40;;;18.90;83.10;;;;;;4964619;28;20629;-77
2021/05/18 15:15:08;;;;;;;0.40;0.40;;;19.10;99.90;;;;;;4965487;28;20213;-76
2021/05/18 15:17:36;;;;;;;0.30;0.30;;;19.10;80.20;;;;;;4962802;28;20201;-76
2021/05/18 15:20:05;;;;;;;0.40;0.40;;;19.10;80.80;;;;;;4960532;28;20193;-77
2021/05/18 15:22:33;;;;;;;0.40;0.40;;;19.20;81.30;;;;;;4966095;28;20280;-78
2021/05/18 15:25:00;;;;;;;0.30;0.30;;;18.80;80.00;;;;;;4971163;28;20291;-78
2021/05/18 15:27:28;;;;;;;0.40;0.40;;;18.70;80.60;;;;;;4965345;28;20201;-76
2021/05/18 15:29:55;;;;;;;0.40;0.40;;;18.70;79.90;;;;;;4973671;28;20204;-77
2021/05/18 15:32:23;;;;;;;0.40;0.40;;;18.60;78.90;;;;;;4955090;28;20197;-77
2021/05/18 15:34:51;;;;;;;0.40;0.40;;;18.40;79.00;;;;;;4954242;29;20638;-76
2021/05/18 15:37:19;;;;;;;0.40;0.40;;;18.40;80.10;;;;;;4968058;28;20228;-79
2021/05/18 15:39:47;;;;;;;0.35;0.35;;;18.30;79.30;;;;;;4958187;28;20205;-76
2021/05/18 15:42:15;;;;;;;0.40;0.40;;;18.30;80.70;;;;;;4969899;28;20666;-78
2021/05/18 15:44:42;;;;;;;0.40;0.40;;;18.20;81.30;;;;;;4960329;28;20230;-76
2021/05/18 15:47:10;;;;;;;0.50;0.50;;;18.20;81.00;;;;;;4961883;28;20211;-75
2021/05/18 15:49:37;;;;;;;0.30;0.30;;;18.20;81.00;;;;;;4965110;28;20201;-75
2021/05/18 15:52:06;;;;;;;0.50;0.50;;;18.10;80.70;;;;;;4965522;28;20231;-75
2021/05/18 15:54:33;;;;;;;0.40;0.40;;;17.90;80.60;;;;;;4964079;28;20212;-75
2021/05/18 15:57:01;;;;;;;0.50;0.50;;;17.80;81.60;;;;;;4960716;28;20260;-76
2021/05/18 15:59:28;;;;;;;0.30;0.30;;;17.80;80.70;;;;;;4962677;28;20688;-75
2021/05/18 16:01:56;;;;;;;0.50;0.50;;;17.60;82.60;;;;;;4961960;28;20201;-75
2021/05/18 16:04:24;;;;;;;0.50;0.50;;;17.60;82.70;;;;;;4958051;28;20225;-75
2021/05/18 16:06:52;;;;;;;0.40;0.40;;;17.60;83.60;;;;;;4966194;28;20200;-76
2021/05/18 16:09:21;;;;;;;0.40;0.40;;;17.60;83.20;;;;;;4973237;28;20204;-76
2021/05/18 16:11:48;;;;;;;0.40;0.40;;;17.80;84.20;;;;;;4973206;28;20259;-75
2021/05/18 16:14:16;;;;;;;0.40;0.40;;;17.80;83.30;;;;;;4967366;28;20237;-75
2021/05/18 16:16:47;;;;;;;0.50;0.50;;;18.00;83.70;;;;;;4961039;28;20223;-75
2021/05/18 16:19:14;;;;;;;0.40;0.40;;;18.00;83.70;;;;;;4959101;28;20203;-76
2021/05/18 16:21:42;;;;;;;0.40;0.40;;;18.40;82.90;;;;;;4965609;28;20610;-77
2021/05/18 16:24:09;;;;;;;0.40;0.40;;;18.40;81.40;;;;;;4964209;28;20217;-78
2021/05/18 16:26:38;;;;;;;0.30;0.30;;;18.80;81.60;;;;;;4967842;28;20658;-78
2021/05/18 16:31:35;;;;;;;0.30;0.30;;;19.80;77.20;;;;;;4925866;29;20230;-75
2021/05/18 16:34:03;;;;;;;0.40;0.40;;;19.80;75.90;;;;;;4937592;29;20236;-76
2021/05/18 16:36:31;;;;;;;0.40;0.40;;;20.20;76.90;;;;;;4937930;29;20526;-77
2021/05/18 16:38:59;;;;;;;0.40;0.40;;;20.30;76.60;;;;;;4938670;29;20229;-76
2021/05/18 16:41:33;;;;;;;0.40;0.40;;;21.00;72.90;;;;;;4918660;29;20211;-76
2021/05/18 16:44:01;;;;;;;0.40;0.40;;;21.20;74.20;;;;;;4918107;29;20254;-76
2021/05/18 16:46:29;;;;;;;0.20;0.20;;;21.80;90.00;;;;;;4918817;29;20210;-75
2021/05/18 16:48:57;;;;;;;0.40;0.40;;;21.50;81.50;;;;;;4918849;29;20244;-75
2021/05/18 16:51:24;;;;;;;0.40;0.40;;;20.60;68.10;;;;;;4917819;29;20289;-75
2021/05/18 16:53:53;;;;;;;0.40;0.40;;;19.60;99.90;;;;;;4918124;29;20198;-75
2021/05/18 16:56:22;;;;;;;0.40;0.40;;;19.70;73.20;;;;;;4918718;29;20210;-75
2021/05/18 16:58:52;;;;;;;0.47;0.47;;;18.90;71.40;;;;;;4916979;29;20218;-76
2021/05/18 17:01:21;;;;;;;0.40;0.40;;;18.70;75.10;;;;;;4909489;29;20210;-75
2021/05/18 17:04:08;;;;;;;0.50;0.50;;;17.50;78.60;;;;;;4907376;29;20221;-76
2021/05/18 17:06:36;;;;;;;0.40;0.40;;;16.70;82.20;;;;;;4917027;29;20206;-75
2021/05/18 17:09:06;;;;;;;0.50;0.50;;;16.30;83.30;;;;;;4918093;29;20588;-75
2021/05/18 17:11:35;;;;;;;0.55;0.55;;;16.10;84.30;;;;;;4912311;29;20728;-75
2021/05/18 17:14:03;;;;;;;0.57;0.57;;;16.00;85.60;;;;;;4901433;29;20206;-76
2021/05/18 17:16:31;;;;;;;0.57;0.57;;;16.00;86.00;;;;;;4899860;29;20211;-76
2021/05/18 17:18:58;;;;;;;0.40;0.40;;;15.90;86.70;;;;;;4899962;29;20688;-77
2021/05/18 17:21:26;;;;;;;0.50;0.50;;;15.70;87.50;;;;;;4904588;29;20231;-77
2021/05/18 17:23:53;;;;;;;0.60;0.60;;;15.50;88.00;;;;;;4907138;29;20324;-76
2021/05/18 17:26:21;;;;;;;0.50;0.50;;;15.40;89.70;;;;;;4911017;29;20216;-76
2021/05/18 17:28:48;;;;;;;0.60;0.60;;;15.30;93.50;;;;;;4936523;29;20202;-75
2021/05/18 17:31:16;;;;;;;0.60;0.60;;;14.70;99.90;;;;;;4936453;29;20793;-76
2021/05/18 17:33:45;;;;;;;0.70;0.70;;;13.90;99.90;;;;;;4936187;29;20707;-76
2021/05/18 17:36:12;;;;;;;0.70;0.70;;;13.10;99.90;;;;;;4936129;29;20206;-76
2021/05/18 17:38:39;;;;;;;0.70;0.70;;;12.50;99.90;;;;;;4936473;29;20202;-76
2021/05/18 17:41:07;;;;;;;0.80;0.80;;;12.30;99.90;;;;;;4936132;29;20226;-76
2021/05/18 17:43:36;;;;;;;0.80;0.80;;;12.00;99.90;;;;;;4936261;29;20249;-76
2021/05/18 17:46:07;;;;;;;0.80;0.80;;;11.80;99.90;;;;;;4936969;29;20229;-76
2021/05/18 17:48:34;;;;;;;0.80;0.80;;;11.50;99.90;;;;;;4938417;29;20210;-77
2021/05/18 17:51:04;;;;;;;0.80;0.80;;;;;;;;;;4921844;29;20215;-76
2021/05/18 17:53:32;;;;;;;1.08;1.08;;;10.80;99.90;;;;;;4900285;29;20199;-77
2021/05/18 17:56:00;;;;;;;0.90;0.90;;;10.70;99.90;;;;;;4898869;29;20214;-77
2021/05/18 17:58:27;;;;;;;0.88;0.88;;;10.80;99.90;;;;;;4900291;29;20196;-77
2021/05/18 18:00:56;;;;;;;0.70;0.70;;;;;;;;;;4900723;29;20279;-77
2021/05/18 18:03:23;;;;;;;1.05;1.05;;;10.60;99.90;;;;;;4903479;29;20218;-77
2021/05/18 18:05:53;;;;;;;0.90;0.90;;;10.70;99.90;;;;;;4909591;29;20279;-77
2021/05/18 18:08:24;;;;;;;0.90;0.90;;;10.70;99.90;;;;;;4911825;29;20241;-78
2021/05/18 18:10:51;;;;;;;0.90;0.90;;;10.60;99.90;;;;;;4912208;29;20282;-78
2021/05/18 18:13:20;;;;;;;0.90;0.90;;;10.60;99.90;;;;;;4906620;29;20687;-76
2021/05/18 18:15:48;;;;;;;0.77;0.77;;;10.70;99.90;;;;;;4912155;29;20274;-77
2021/05/18 18:18:18;;;;;;;0.90;0.90;;;10.70;99.90;;;;;;4902066;29;20215;-77
2021/05/18 18:20:47;;;;;;;0.90;0.90;;;10.70;99.90;;;;;;4909863;29;20223;-77
2021/05/18 18:23:17;;;;;;;0.90;0.90;;;10.80;99.90;;;;;;4912790;29;20590;-78
2021/05/18 18:25:45;;;;;;;0.80;0.80;;;10.80;99.90;;;;;;4916913;29;20277;-79
2021/05/18 18:28:17;;;;;;;0.80;0.80;;;10.90;99.90;;;;;;4903719;29;20333;-78
2021/05/18 18:30:45;;;;;;;0.88;0.88;;;11.10;99.90;;;;;;4910859;29;20230;-77
2021/05/18 18:33:13;;;;;;;0.80;0.80;;;11.10;99.90;;;;;;4911003;29;20204;-76
2021/05/18 18:35:41;;;;;;;0.80;0.80;;;11.20;99.90;;;;;;4903813;29;20245;-76
2021/05/18 18:38:11;;;;;;;0.80;0.80;;;11.30;99.90;;;;;;4910020;29;20210;-76
2021/05/18 18:40:39;;;;;;;0.80;0.80;;;11.50;99.90;;;;;;4907534;29;20710;-76
2021/05/18 18:43:08;;;;;;;0.70;0.70;;;11.60;99.90;;;;;;4905845;29;20681;-77
2021/05/18 18:45:38;;;;;;;0.75;0.75;;;11.70;99.90;;;;;;4911128;29;20243;-75
2021/05/18 18:48:14;;;;;;;0.70;0.70;;;11.70;99.90;;;;;;4904745;29;20204;-76
2021/05/18 18:50:46;;;;;;;0.85;0.85;;;11.70;99.90;;;;;;4905207;29;20275;-77
2021/05/18 18:53:29;;;;;;;0.70;0.70;;;11.70;99.90;;;;;;4905411;29;20195;-77
2021/05/18 18:55:59;;;;;;;0.75;0.75;;;11.70;99.90;;;;;;4907676;29;20206;-76
2021/05/18 18:58:28;;;;;;;0.60;0.60;;;11.70;99.90;;;;;;4905819;29;20203;-76
2021/05/18 19:00:57;;;;;;;0.60;0.60;;;11.70;99.90;;;;;;4907375;29;20238;-76
2021/05/18 19:03:26;;;;;;;0.60;0.60;;;11.70;99.90;;;;;;4907432;29;20220;-76
2021/05/18 19:06:01;;;;;;;0.70;0.70;;;11.90;99.90;;;;;;4905852;29;20206;-77
2021/05/18 19:14:02;;;;;;;0.70;0.70;;;12.10;99.90;;;;;;4894930;29;20218;-76
2021/05/18 19:16:39;;;;;;;0.70;0.70;;;12.10;99.90;;;;;;4905954;29;20254;-76
2021/05/18 19:19:09;;;;;;;0.70;0.70;;;11.90;99.90;;;;;;4903959;29;20611;-76
2021/05/18 19:21:36;;;;;;;0.70;0.70;;;12.00;99.90;;;;;;4905681;29;20207;-76
2021/05/18 19:24:05;;;;;;;0.60;0.60;;;12.20;99.90;;;;;;4905153;29;20214;-76
2021/05/18 19:26:33;;;;;;;0.70;0.70;;;12.10;99.90;;;;;;4905418;29;20688;-76
2021/05/18 19:29:00;;;;;;;0.70;0.70;;;12.10;99.90;;;;;;4907999;29;20255;-76
2021/05/18 19:31:29;;;;;;;0.70;0.70;;;12.00;99.90;;;;;;4899878;29;20342;-76
2021/05/18 19:33:59;;;;;;;0.70;0.70;;;12.10;99.90;;;;;;4908642;29;20258;-77
2021/05/18 19:36:41;;;;;;;0.80;0.80;;;12.20;99.90;;;;;;4896749;29;20218;-76
2021/05/18 19:42:16;;;;;;;0.70;0.70;;;12.20;99.90;;;;;;4897189;29;20668;-76
2021/05/18 19:44:53;;;;;;;0.73;0.73;;;12.10;99.90;;;;;;4896485;29;20227;-75
2021/05/18 19:50:11;;;;;;;0.70;0.70;;;12.20;99.90;;;;;;4896809;29;20283;-75
2021/05/18 19:52:40;;;;;;;0.70;0.70;;;12.30;99.90;;;;;;4896472;29;20211;-76
2021/05/18 19:55:10;;;;;;;0.80;0.80;;;12.30;99.90;;;;;;4911209;29;20202;-76
2021/05/18 19:57:46;;;;;;;0.70;0.70;;;12.30;99.90;;;;;;4916509;29;20206;-76
2021/05/18 20:17:11;;;;;;;0.70;0.70;;;12.00;99.90;;;;;;4899938;29;20638;-75
2021/05/18 20:19:43;;;;;;;0.70;0.70;;;11.80;99.90;;;;;;4902443;29;20217;-75
2021/05/18 20:22:14;;;;;;;0.70;0.70;;;11.80;99.90;;;;;;4917356;29;20210;-76
2021/05/18 20:24:43;;;;;;;0.70;0.70;;;11.90;99.90;;;;;;4918622;29;20575;-75
2021/05/18 20:27:11;;;;;;;0.70;0.70;;;11.80;99.90;;;;;;4917892;29;20210;-76
2021/05/18 20:29:38;;;;;;;0.70;0.70;;;11.90;99.90;;;;;;4918109;29;20295;-76
2021/05/18 20:32:08;;;;;;;0.70;0.70;;;11.80;99.90;;;;;;4918323;29;20206;-75
2021/05/18 20:34:52;;;;;;;0.60;0.60;;;11.90;99.90;;;;;;4912836;29;20295;-76
2021/05/18 20:40:09;;;;;;;0.70;0.70;;;11.80;99.90;;;;;;4916965;29;20294;-75
2021/05/18 20:42:37;;;;;;;0.70;0.70;;;11.90;99.90;;;;;;4919435;29;20207;-75
2021/05/18 20:45:07;;;;;;;0.70;0.70;;;11.90;99.90;;;;;;4919647;29;20234;-76
2021/05/18 20:47:35;;;;;;;0.70;0.70;;;11.90;99.90;;;;;;4924649;29;20206;-76
2021/05/18 20:50:08;;;;;;;0.80;0.80;;;11.80;99.90;;;;;;4940757;29;20478;-76
2021/05/18 20:52:39;;;;;;;0.70;0.70;;;11.60;99.90;;;;;;4936040;29;20663;-76
2021/05/18 20:55:08;;;;;;;0.80;0.80;;;11.50;99.90;;;;;;4936981;29;20265;-76
2021/05/18 20:57:35;;;;;;;0.73;0.73;;;11.50;99.90;;;;;;4936713;29;20206;-76
